sensor_id;sensor_type;location;lat;lon;timestamp;pressure;altitude;pressure_sealevel;temperature;humidity
57574;BME280;68988;49.000;21.242;2023-06-04T00:02:24;98941.25;;;26.58;36.71
57574;BME280;68988;49.000;21.242;2023-06-04T00:04:50;98953.63;;;26.59;37.00
57574;BME280;68988;49.000;21.242;2023-06-04T00:07:15;98951.22;;;26.58;36.54
57574;BME280;68988;49.000;21.242;2023-06-04T00:09:41;98945.84;;;26.58;36.69
57574;BME280;68988;49.000;21.242;2023-06-04T00:12:06;98931.59;;;26.57;36.58
57574;BME280;68988;49.000;21.242;2023-06-04T00:14:32;98936.97;;;26.57;36.84
57574;BME280;68988;49.000;21.242;2023-06-04T00:16:57;98927.28;;;26.56;36.66
57574;BME280;68988;49.000;21.242;2023-06-04T00:19:23;98929.97;;;26.56;36.96
57574;BME280;68988;49.000;21.242;2023-06-04T00:21:48;98942.63;;;26.56;36.50
57574;BME280;68988;49.000;21.242;2023-06-04T00:24:16;98945.59;;;26.54;36.60
57574;BME280;68988;49.000;21.242;2023-06-04T00:26:41;98945.03;;;26.57;36.44
57574;BME280;68988;49.000;21.242;2023-06-04T00:29:06;98947.72;;;26.57;36.85
57574;BME280;68988;49.000;21.242;2023-06-04T00:31:32;98943.41;;;26.56;36.30
57574;BME280;68988;49.000;21.242;2023-06-04T00:33:57;98939.13;;;26.55;36.47
57574;BME280;68988;49.000;21.242;2023-06-04T00:36:22;98938.59;;;26.53;36.71
57574;BME280;68988;49.000;21.242;2023-06-04T00:38:48;98933.72;;;26.55;36.43
57574;BME280;68988;49.000;21.242;2023-06-04T00:41:13;98931.03;;;26.55;36.25
57574;BME280;68988;49.000;21.242;2023-06-04T00:43:38;98938.59;;;26.53;36.66
57574;BME280;68988;49.000;21.242;2023-06-04T00:46:05;98934.00;;;26.54;36.35
57574;BME280;68988;49.000;21.242;2023-06-04T00:48:31;98928.63;;;26.54;36.31
57574;BME280;68988;49.000;21.242;2023-06-04T00:50:57;98937.53;;;26.54;36.80
57574;BME280;68988;49.000;21.242;2023-06-04T00:53:24;98932.94;;;26.55;36.16
57574;BME280;68988;49.000;21.242;2023-06-04T00:55:50;98932.41;;;26.53;36.35
57574;BME280;68988;49.000;21.242;2023-06-04T00:58:16;98934.00;;;26.54;36.56
57574;BME280;68988;49.000;21.242;2023-06-04T01:00:44;98936.41;;;26.55;36.31
57574;BME280;68988;49.000;21.242;2023-06-04T01:03:14;98932.41;;;26.53;36.49
57574;BME280;68988;49.000;21.242;2023-06-04T01:05:43;98926.50;;;26.51;36.75
57574;BME280;68988;49.000;21.242;2023-06-04T01:08:12;98931.59;;;26.52;36.46
57574;BME280;68988;49.000;21.242;2023-06-04T01:10:52;98931.88;;;26.56;36.40
57574;BME280;68988;49.000;21.242;2023-06-04T01:13:18;98928.38;;;26.50;36.30
57574;BME280;68988;49.000;21.242;2023-06-04T01:15:43;98928.38;;;26.50;36.31
57574;BME280;68988;49.000;21.242;2023-06-04T01:18:09;98932.16;;;26.49;36.55
57574;BME280;68988;49.000;21.242;2023-06-04T01:20:40;98931.09;;;26.50;36.18
57574;BME280;68988;49.000;21.242;2023-06-04T01:23:43;98930.75;;;26.57;36.51
57574;BME280;68988;49.000;21.242;2023-06-04T01:26:11;98932.72;;;26.46;36.29
57574;BME280;68988;49.000;21.242;2023-06-04T01:28:37;98928.44;;;26.45;36.32
57574;BME280;68988;49.000;21.242;2023-06-04T01:31:04;98928.94;;;26.47;36.31
57574;BME280;68988;49.000;21.242;2023-06-04T01:33:33;98923.56;;;26.47;36.65
57574;BME280;68988;49.000;21.242;2023-06-04T01:35:58;98927.59;;;26.50;36.70
57574;BME280;68988;49.000;21.242;2023-06-04T01:38:24;98932.16;;;26.49;36.62
57574;BME280;68988;49.000;21.242;2023-06-04T01:40:49;98927.31;;;26.46;36.33
57574;BME280;68988;49.000;21.242;2023-06-04T01:43:16;98934.03;;;26.49;36.34
57574;BME280;68988;49.000;21.242;2023-06-04T01:45:41;98928.16;;;26.47;36.57
57574;BME280;68988;49.000;21.242;2023-06-04T01:48:06;98921.94;;;26.46;36.19
57574;BME280;68988;49.000;21.242;2023-06-04T01:50:32;98927.31;;;26.46;36.62
57574;BME280;68988;49.000;21.242;2023-06-04T01:52:58;98933.53;;;26.47;36.64
57574;BME280;68988;49.000;21.242;2023-06-04T01:55:24;98936.50;;;26.45;36.54
57574;BME280;68988;49.000;21.242;2023-06-04T01:57:51;98931.13;;;26.45;36.15
57574;BME280;68988;49.000;21.242;2023-06-04T02:00:16;98939.19;;;26.45;36.59
57574;BME280;68988;49.000;21.242;2023-06-04T02:02:44;98941.88;;;26.45;36.33
57574;BME280;68988;49.000;21.242;2023-06-04T02:05:14;98940.78;;;26.46;36.29
57574;BME280;68988;49.000;21.242;2023-06-04T02:07:40;98932.97;;;26.44;36.30
57574;BME280;68988;49.000;21.242;2023-06-04T02:10:07;98930.28;;;26.44;36.30
57574;BME280;68988;49.000;21.242;2023-06-04T02:12:32;98933.25;;;26.43;36.46
57574;BME280;68988;49.000;21.242;2023-06-04T02:14:58;98934.09;;;26.43;36.66
57574;BME280;68988;49.000;21.242;2023-06-04T02:17:23;98927.88;;;26.43;36.64
57574;BME280;68988;49.000;21.242;2023-06-04T02:19:48;98940.25;;;26.44;36.71
57574;BME280;68988;49.000;21.242;2023-06-04T02:22:17;98938.63;;;26.43;36.61
57574;BME280;68988;49.000;21.242;2023-06-04T02:24:43;98938.63;;;26.43;36.28
57574;BME280;68988;49.000;21.242;2023-06-04T02:27:09;98934.34;;;26.42;36.47
57574;BME280;68988;49.000;21.242;2023-06-04T02:29:35;98942.44;;;26.42;36.35
57574;BME280;68988;49.000;21.242;2023-06-04T02:32:01;98942.94;;;26.44;36.36
57574;BME280;68988;49.000;21.242;2023-06-04T02:34:27;98942.44;;;26.42;36.43
57574;BME280;68988;49.000;21.242;2023-06-04T02:36:52;98951.28;;;26.42;36.79
57574;BME280;68988;49.000;21.242;2023-06-04T02:39:20;98938.63;;;26.43;36.75
57574;BME280;68988;49.000;21.242;2023-06-04T02:41:46;98945.13;;;26.42;36.31
57574;BME280;68988;49.000;21.242;2023-06-04T02:44:12;98943.50;;;26.41;36.47
57574;BME280;68988;49.000;21.242;2023-06-04T02:46:37;98940.81;;;26.41;36.55
57574;BME280;68988;49.000;21.242;2023-06-04T02:49:03;98945.13;;;26.42;36.33
57574;BME280;68988;49.000;21.242;2023-06-04T02:51:29;98941.59;;;26.41;36.31
57574;BME280;68988;49.000;21.242;2023-06-04T02:53:55;98940.81;;;26.41;36.31
57574;BME280;68988;49.000;21.242;2023-06-04T02:56:20;98942.44;;;26.42;36.70
57574;BME280;68988;49.000;21.242;2023-06-04T02:58:52;98938.09;;;26.46;36.69
57574;BME280;68988;49.000;21.242;2023-06-04T03:01:19;98939.75;;;26.42;36.29
57574;BME280;68988;49.000;21.242;2023-06-04T03:03:46;98940.81;;;26.41;36.31
57574;BME280;68988;49.000;21.242;2023-06-04T03:06:12;98942.44;;;26.42;36.74
57574;BME280;68988;49.000;21.242;2023-06-04T03:08:39;98938.63;;;26.43;36.40
57574;BME280;68988;49.000;21.242;2023-06-04T03:11:05;98935.41;;;26.46;36.45
57574;BME280;68988;49.000;21.242;2023-06-04T03:13:30;98939.19;;;26.45;36.37
57574;BME280;68988;49.000;21.242;2023-06-04T03:15:55;98945.31;;;26.51;36.25
57574;BME280;68988;49.000;21.242;2023-06-04T03:18:21;98946.94;;;26.52;36.32
57574;BME280;68988;49.000;21.242;2023-06-04T03:20:47;98934.84;;;26.54;36.71
57574;BME280;68988;49.000;21.242;2023-06-04T03:23:13;98941.25;;;26.58;36.21
57574;BME280;68988;49.000;21.242;2023-06-04T03:25:38;98938.56;;;26.63;36.24
57574;BME280;68988;49.000;21.242;2023-06-04T03:28:03;98944.47;;;26.66;36.37
57574;BME280;68988;49.000;21.242;2023-06-04T03:30:29;98945.00;;;26.68;36.22
57574;BME280;68988;49.000;21.242;2023-06-04T03:32:54;98945.53;;;26.70;36.00
57574;BME280;68988;49.000;21.242;2023-06-04T03:35:20;98940.69;;;26.72;36.12
57574;BME280;68988;49.000;21.242;2023-06-04T03:37:45;98944.69;;;26.74;36.09
57574;BME280;68988;49.000;21.242;2023-06-04T03:40:11;98948.69;;;26.77;36.31
57574;BME280;68988;49.000;21.242;2023-06-04T03:42:36;98948.44;;;26.78;35.93
57574;BME280;68988;49.000;21.242;2023-06-04T03:45:02;98953.25;;;26.82;36.02
57574;BME280;68988;49.000;21.242;2023-06-04T03:47:27;98962.66;;;26.84;36.16
57574;BME280;68988;49.000;21.242;2023-06-04T03:49:53;98952.69;;;26.85;35.86
57574;BME280;68988;49.000;21.242;2023-06-04T03:52:18;98954.03;;;26.87;36.15
57574;BME280;68988;49.000;21.242;2023-06-04T03:54:43;98955.38;;;26.90;36.21
57574;BME280;68988;49.000;21.242;2023-06-04T03:57:09;98952.91;;;26.93;35.87
57574;BME280;68988;49.000;21.242;2023-06-04T03:59:34;98955.06;;;26.96;35.75
57574;BME280;68988;49.000;21.242;2023-06-04T04:02:00;98951.28;;;26.97;35.86
57574;BME280;68988;49.000;21.242;2023-06-04T04:04:25;98952.59;;;27.00;35.86
57574;BME280;68988;49.000;21.242;2023-06-04T04:06:50;98951.25;;;27.03;35.97
57574;BME280;68988;49.000;21.242;2023-06-04T04:09:16;98960.66;;;27.05;35.61
57574;BME280;68988;49.000;21.242;2023-06-04T04:11:41;98956.56;;;27.08;35.77
57574;BME280;68988;49.000;21.242;2023-06-04T04:14:07;98951.72;;;27.10;35.98
57574;BME280;68988;49.000;21.242;2023-06-04T04:16:32;98958.44;;;27.12;35.94
57574;BME280;68988;49.000;21.242;2023-06-04T04:18:57;98949.00;;;27.15;36.02
57574;BME280;68988;49.000;21.242;2023-06-04T04:21:23;98957.59;;;27.17;35.66
57574;BME280;68988;49.000;21.242;2023-06-04T04:23:49;98950.06;;;27.19;35.94
57574;BME280;68988;49.000;21.242;2023-06-04T04:26:14;98953.25;;;27.21;35.67
57574;BME280;68988;49.000;21.242;2023-06-04T04:28:42;98947.31;;;27.24;35.64
57574;BME280;68988;49.000;21.242;2023-06-04T04:31:08;98940.84;;;27.25;35.32
57574;BME280;68988;49.000;21.242;2023-06-04T04:33:36;98945.66;;;27.28;35.61
57574;BME280;68988;49.000;21.242;2023-06-04T04:36:05;98941.34;;;27.32;35.46
57574;BME280;68988;49.000;21.242;2023-06-04T04:38:34;98949.13;;;27.34;35.33
57574;BME280;68988;49.000;21.242;2023-06-04T04:40:59;98953.16;;;27.37;35.71
57574;BME280;68988;49.000;21.242;2023-06-04T04:43:32;98953.09;;;27.42;35.46
57574;BME280;68988;49.000;21.242;2023-06-04T04:45:58;98946.94;;;27.41;35.51
57574;BME280;68988;49.000;21.242;2023-06-04T04:48:24;98959.81;;;27.44;35.39
57574;BME280;68988;49.000;21.242;2023-06-04T04:50:49;98960.34;;;27.46;35.53
57574;BME280;68988;49.000;21.242;2023-06-04T04:53:15;98953.59;;;27.49;35.07
57574;BME280;68988;49.000;21.242;2023-06-04T04:55:40;98955.44;;;27.54;35.40
57574;BME280;68988;49.000;21.242;2023-06-04T04:58:06;98954.59;;;27.58;35.32
57574;BME280;68988;49.000;21.242;2023-06-04T05:00:32;98954.50;;;27.68;35.24
57574;BME280;68988;49.000;21.242;2023-06-04T05:02:57;98950.13;;;27.73;35.06
57574;BME280;68988;49.000;21.242;2023-06-04T05:05:22;98955.22;;;27.74;35.06
57574;BME280;68988;49.000;21.242;2023-06-04T05:07:48;98955.00;;;27.71;35.33
57574;BME280;68988;49.000;21.242;2023-06-04T05:10:13;98950.69;;;27.69;35.54
57574;BME280;68988;49.000;21.242;2023-06-04T05:12:39;98944.22;;;27.71;35.26
57574;BME280;68988;49.000;21.242;2023-06-04T05:15:04;98939.63;;;27.71;35.21
57574;BME280;68988;49.000;21.242;2023-06-04T05:17:30;98941.25;;;27.72;35.06
57574;BME280;68988;49.000;21.242;2023-06-04T05:19:56;98939.88;;;27.75;35.37
57574;BME280;68988;49.000;21.242;2023-06-04T05:22:29;98932.53;;;27.80;35.13
57574;BME280;68988;49.000;21.242;2023-06-04T05:24:55;98938.22;;;27.79;35.36
57574;BME280;68988;49.000;21.242;2023-06-04T05:27:20;98936.06;;;27.81;35.31
57574;BME280;68988;49.000;21.242;2023-06-04T05:29:47;98940.34;;;27.82;35.08
57574;BME280;68988;49.000;21.242;2023-06-04T05:32:12;98934.66;;;27.83;35.04
57574;BME280;68988;49.000;21.242;2023-06-04T05:34:38;98937.59;;;27.87;35.00
57574;BME280;68988;49.000;21.242;2023-06-04T05:37:04;98942.41;;;27.90;35.05
57574;BME280;68988;49.000;21.242;2023-06-04T05:39:33;98943.72;;;27.93;35.00
57574;BME280;68988;49.000;21.242;2023-06-04T05:41:58;98941.03;;;27.93;35.05
57574;BME280;68988;49.000;21.242;2023-06-04T05:44:24;98937.53;;;27.92;35.19
57574;BME280;68988;49.000;21.242;2023-06-04T05:46:49;98942.09;;;27.97;35.17
57574;BME280;68988;49.000;21.242;2023-06-04T05:49:15;98945.31;;;27.99;35.10
57574;BME280;68988;49.000;21.242;2023-06-04T05:51:42;98941.53;;;28.00;35.11
57574;BME280;68988;49.000;21.242;2023-06-04T05:54:07;98945.56;;;28.02;34.84
57574;BME280;68988;49.000;21.242;2023-06-04T05:56:32;98947.13;;;28.03;34.97
57574;BME280;68988;49.000;21.242;2023-06-04T05:58:58;98939.59;;;28.06;35.02
57574;BME280;68988;49.000;21.242;2023-06-04T06:01:23;98947.09;;;28.09;35.02
57574;BME280;68988;49.000;21.242;2023-06-04T06:03:49;98945.97;;;28.10;35.07
57574;BME280;68988;49.000;21.242;2023-06-04T06:06:14;98941.91;;;28.12;35.17
57574;BME280;68988;49.000;21.242;2023-06-04T06:08:40;98941.63;;;28.14;35.15
57574;BME280;68988;49.000;21.242;2023-06-04T06:11:05;98948.34;;;28.16;34.67
57574;BME280;68988;49.000;21.242;2023-06-04T06:13:32;98953.47;;;28.18;35.00
57574;BME280;68988;49.000;21.242;2023-06-04T06:15:57;98944.78;;;28.21;35.14
57574;BME280;68988;49.000;21.242;2023-06-04T06:18:23;98949.91;;;28.22;35.21
57574;BME280;68988;49.000;21.242;2023-06-04T06:20:48;98947.72;;;28.25;34.54
57574;BME280;68988;49.000;21.242;2023-06-04T06:23:13;98956.00;;;28.28;34.55
57574;BME280;68988;49.000;21.242;2023-06-04T06:25:39;98956.25;;;28.32;34.53
57574;BME280;68988;49.000;21.242;2023-06-04T06:28:11;98955.97;;;28.33;34.64
57574;BME280;68988;49.000;21.242;2023-06-04T06:30:36;98956.19;;;28.37;34.46
57574;BME280;68988;49.000;21.242;2023-06-04T06:33:02;98956.94;;;28.43;34.38
57574;BME280;68988;49.000;21.242;2023-06-04T06:35:27;98951.47;;;28.48;34.17
57574;BME280;68988;49.000;21.242;2023-06-04T06:37:53;98943.53;;;28.56;34.37
57574;BME280;68988;49.000;21.242;2023-06-04T06:40:19;98947.78;;;28.63;34.15
57574;BME280;68988;49.000;21.242;2023-06-04T06:42:50;98955.81;;;28.68;34.01
57574;BME280;68988;49.000;21.242;2023-06-04T06:45:19;98946.34;;;28.70;34.24
57574;BME280;68988;49.000;21.242;2023-06-04T06:47:45;98950.88;;;28.75;34.12
57574;BME280;68988;49.000;21.242;2023-06-04T06:50:11;98950.56;;;28.77;33.96
57574;BME280;68988;49.000;21.242;2023-06-04T06:52:37;98945.88;;;28.82;33.86
57574;BME280;68988;49.000;21.242;2023-06-04T06:55:04;98943.34;;;28.91;33.85
57574;BME280;68988;49.000;21.242;2023-06-04T06:57:30;98947.19;;;29.04;33.71
57574;BME280;68988;49.000;21.242;2023-06-04T06:59:55;98946.72;;;29.16;33.56
57574;BME280;68988;49.000;21.242;2023-06-04T07:02:21;98942.50;;;29.28;33.25
57574;BME280;68988;49.000;21.242;2023-06-04T07:04:47;98944.31;;;29.33;33.08
57574;BME280;68988;49.000;21.242;2023-06-04T07:07:12;98939.34;;;29.40;33.14
57574;BME280;68988;49.000;21.242;2023-06-04T07:09:38;98946.13;;;29.38;33.06
57574;BME280;68988;49.000;21.242;2023-06-04T07:12:03;98945.00;;;29.25;33.17
57574;BME280;68988;49.000;21.242;2023-06-04T07:14:28;98935.44;;;29.14;33.39
57574;BME280;68988;49.000;21.242;2023-06-04T07:16:54;98933.19;;;29.02;33.60
57574;BME280;68988;49.000;21.242;2023-06-04T07:19:19;98943.84;;;28.93;34.07
57574;BME280;68988;49.000;21.242;2023-06-04T07:21:45;98934.50;;;28.85;33.68
57574;BME280;68988;49.000;21.242;2023-06-04T07:24:10;98933.50;;;28.81;33.86
57574;BME280;68988;49.000;21.242;2023-06-04T07:26:36;98939.78;;;28.77;33.79
57574;BME280;68988;49.000;21.242;2023-06-04T07:29:01;98942.81;;;28.70;33.90
57574;BME280;68988;49.000;21.242;2023-06-04T07:31:27;98943.13;;;28.68;34.16
57574;BME280;68988;49.000;21.242;2023-06-04T07:33:52;98944.22;;;28.67;33.97
57574;BME280;68988;49.000;21.242;2023-06-04T07:36:17;98941.56;;;28.62;34.41
57574;BME280;68988;49.000;21.242;2023-06-04T07:38:43;98938.38;;;28.60;34.37
57574;BME280;68988;49.000;21.242;2023-06-04T07:41:09;98942.16;;;28.59;34.14
57574;BME280;68988;49.000;21.242;2023-06-04T07:43:35;98940.00;;;28.56;34.52
57574;BME280;68988;49.000;21.242;2023-06-04T07:46:04;98936.53;;;28.55;34.35
57574;BME280;68988;49.000;21.242;2023-06-04T07:48:30;98927.09;;;28.53;34.40
57574;BME280;68988;49.000;21.242;2023-06-04T07:51:00;98930.09;;;28.51;34.09
57574;BME280;68988;49.000;21.242;2023-06-04T07:53:26;98934.69;;;28.51;34.43
57574;BME280;68988;49.000;21.242;2023-06-04T07:55:52;98936.91;;;28.49;34.31
57574;BME280;68988;49.000;21.242;2023-06-04T07:58:18;98940.38;;;28.49;34.31
57574;BME280;68988;49.000;21.242;2023-06-04T08:00:43;98936.06;;;28.48;34.44
57574;BME280;68988;49.000;21.242;2023-06-04T08:03:08;98935.84;;;28.45;34.58
57574;BME280;68988;49.000;21.242;2023-06-04T08:05:34;98937.97;;;28.48;34.43
57574;BME280;68988;49.000;21.242;2023-06-04T08:08:00;98942.88;;;28.46;34.45
57574;BME280;68988;49.000;21.242;2023-06-04T08:10:26;98936.66;;;28.45;34.35
57574;BME280;68988;49.000;21.242;2023-06-04T08:12:51;98934.53;;;28.42;34.70
57574;BME280;68988;49.000;21.242;2023-06-04T08:15:17;98936.44;;;28.42;34.50
57574;BME280;68988;49.000;21.242;2023-06-04T08:17:42;98936.44;;;28.42;34.51
57574;BME280;68988;49.000;21.242;2023-06-04T08:20:08;98937.53;;;28.40;34.67
57574;BME280;68988;49.000;21.242;2023-06-04T08:22:36;98933.53;;;28.38;34.62
57574;BME280;68988;49.000;21.242;2023-06-04T08:25:02;98940.78;;;28.37;34.65
57574;BME280;68988;49.000;21.242;2023-06-04T08:27:30;98938.09;;;28.37;34.82
57574;BME280;68988;49.000;21.242;2023-06-04T08:29:56;98944.59;;;28.36;34.58
57574;BME280;68988;49.000;21.242;2023-06-04T08:32:22;98942.69;;;28.37;34.65
57574;BME280;68988;49.000;21.242;2023-06-04T08:34:48;98941.38;;;28.34;34.80
57574;BME280;68988;49.000;21.242;2023-06-04T08:37:13;98949.47;;;28.34;34.53
57574;BME280;68988;49.000;21.242;2023-06-04T08:39:38;98942.50;;;28.33;34.74
57574;BME280;68988;49.000;21.242;2023-06-04T08:42:06;98950.03;;;28.31;34.98
57574;BME280;68988;49.000;21.242;2023-06-04T08:44:34;98948.47;;;28.30;34.63
57574;BME280;68988;49.000;21.242;2023-06-04T08:47:05;98944.66;;;28.31;34.91
57574;BME280;68988;49.000;21.242;2023-06-04T08:49:35;98947.63;;;28.30;34.71
57574;BME280;68988;49.000;21.242;2023-06-04T08:52:03;98942.91;;;28.40;34.70
57574;BME280;68988;49.000;21.242;2023-06-04T08:54:29;98949.06;;;28.22;34.84
57574;BME280;68988;49.000;21.242;2023-06-04T08:56:56;98943.97;;;28.20;35.06
57574;BME280;68988;49.000;21.242;2023-06-04T08:59:22;98953.47;;;28.18;35.25
57574;BME280;68988;49.000;21.242;2023-06-04T09:01:48;98951.28;;;28.20;35.21
57574;BME280;68988;49.000;21.242;2023-06-04T09:04:16;98956.16;;;28.18;35.37
57574;BME280;68988;49.000;21.242;2023-06-04T09:06:42;98951.84;;;28.17;34.93
57574;BME280;68988;49.000;21.242;2023-06-04T09:09:09;98948.84;;;28.18;35.30
57574;BME280;68988;49.000;21.242;2023-06-04T09:11:42;98950.47;;;28.19;35.12
57574;BME280;68988;49.000;21.242;2023-06-04T09:14:11;98950.22;;;28.16;34.91
57574;BME280;68988;49.000;21.242;2023-06-04T09:16:46;98954.81;;;28.15;35.42
57574;BME280;68988;49.000;21.242;2023-06-04T09:19:11;98951.06;;;28.16;35.32
57574;BME280;68988;49.000;21.242;2023-06-04T09:21:54;98955.88;;;28.19;35.42
57574;BME280;68988;49.000;21.242;2023-06-04T09:24:21;98955.41;;;28.12;35.15
57574;BME280;68988;49.000;21.242;2023-06-04T09:26:47;98960.78;;;28.12;35.17
57574;BME280;68988;49.000;21.242;2023-06-04T09:29:13;98955.69;;;28.11;35.42
57574;BME280;68988;49.000;21.242;2023-06-04T09:31:39;98947.59;;;28.11;35.49
57574;BME280;68988;49.000;21.242;2023-06-04T09:34:05;98952.78;;;28.07;35.45
57574;BME280;68988;49.000;21.242;2023-06-04T09:36:32;98939.59;;;28.06;35.20
57574;BME280;68988;49.000;21.242;2023-06-04T09:38:58;98943.66;;;28.03;35.52
57574;BME280;68988;49.000;21.242;2023-06-04T09:41:25;98944.44;;;28.03;35.24
57574;BME280;68988;49.000;21.242;2023-06-04T09:43:51;98935.56;;;28.03;35.29
57574;BME280;68988;49.000;21.242;2023-06-04T09:46:24;98930.16;;;28.03;35.39
57574;BME280;68988;49.000;21.242;2023-06-04T09:48:59;98940.88;;;28.08;35.31
57574;BME280;68988;49.000;21.242;2023-06-04T09:51:25;98946.34;;;28.03;35.42
57574;BME280;68988;49.000;21.242;2023-06-04T09:53:59;98945.78;;;28.06;35.21
57574;BME280;68988;49.000;21.242;2023-06-04T09:56:25;98942.31;;;28.00;35.42
57574;BME280;68988;49.000;21.242;2023-06-04T09:58:59;98947.13;;;28.03;35.28
57574;BME280;68988;49.000;21.242;2023-06-04T10:01:29;98951.50;;;27.99;35.65
57574;BME280;68988;49.000;21.242;2023-06-04T10:03:57;98947.19;;;27.98;35.59
57574;BME280;68988;49.000;21.242;2023-06-04T10:06:27;98944.50;;;27.98;35.33
57574;BME280;68988;49.000;21.242;2023-06-04T10:08:57;98939.13;;;27.98;35.56
57574;BME280;68988;49.000;21.242;2023-06-04T10:11:38;98938.03;;;27.99;35.53
57574;BME280;68988;49.000;21.242;2023-06-04T10:14:25;98933.16;;;28.01;35.56
57574;BME280;68988;49.000;21.242;2023-06-04T10:16:53;98935.09;;;27.96;35.72
57574;BME280;68988;49.000;21.242;2023-06-04T10:19:22;98929.41;;;27.97;35.40
57574;BME280;68988;49.000;21.242;2023-06-04T10:21:47;98933.47;;;27.95;35.68
57574;BME280;68988;49.000;21.242;2023-06-04T10:24:14;98927.03;;;27.91;35.71
57574;BME280;68988;49.000;21.242;2023-06-04T10:26:40;98922.69;;;27.95;35.62
57574;BME280;68988;49.000;21.242;2023-06-04T10:29:08;98927.56;;;27.93;35.54
57574;BME280;68988;49.000;21.242;2023-06-04T10:31:36;98922.16;;;27.93;35.67
57574;BME280;68988;49.000;21.242;2023-06-04T10:34:02;98914.91;;;27.93;35.66
57574;BME280;68988;49.000;21.242;2023-06-04T10:36:28;98917.88;;;27.92;35.63
57574;BME280;68988;49.000;21.242;2023-06-04T10:38:54;98923.56;;;27.90;35.73
57574;BME280;68988;49.000;21.242;2023-06-04T10:41:21;98923.03;;;27.88;35.74
57574;BME280;68988;49.000;21.242;2023-06-04T10:43:59;98922.72;;;27.90;35.43
57574;BME280;68988;49.000;21.242;2023-06-04T10:46:25;98918.44;;;27.89;35.46
57574;BME280;68988;49.000;21.242;2023-06-04T10:48:52;98920.84;;;27.90;35.21
57574;BME280;68988;49.000;21.242;2023-06-04T10:51:34;98914.91;;;27.93;35.83
57574;BME280;68988;49.000;21.242;2023-06-04T10:54:02;98916.03;;;27.87;35.38
57574;BME280;68988;49.000;21.242;2023-06-04T10:56:33;98918.19;;;27.85;35.33
57574;BME280;68988;49.000;21.242;2023-06-04T10:58:59;98915.50;;;27.85;35.54
57574;BME280;68988;49.000;21.242;2023-06-04T11:01:28;98918.16;;;27.90;35.69
57574;BME280;68988;49.000;21.242;2023-06-04T11:03:54;98920.84;;;27.90;35.39
57574;BME280;68988;49.000;21.242;2023-06-04T11:06:21;98926.56;;;27.83;35.71
57574;BME280;68988;49.000;21.242;2023-06-04T11:08:47;98923.59;;;27.85;35.57
57574;BME280;68988;49.000;21.242;2023-06-04T11:11:14;98923.88;;;27.83;35.60
57574;BME280;68988;49.000;21.242;2023-06-04T11:13:40;98924.41;;;27.85;35.49
57574;BME280;68988;49.000;21.242;2023-06-04T11:16:19;98935.41;;;27.89;35.54
57574;BME280;68988;49.000;21.242;2023-06-04T11:18:55;98924.91;;;27.87;35.51
57574;BME280;68988;49.000;21.242;2023-06-04T11:21:22;98918.19;;;27.85;35.44
57574;BME280;68988;49.000;21.242;2023-06-04T11:23:47;98924.41;;;27.85;35.63
57574;BME280;68988;49.000;21.242;2023-06-04T11:26:13;98920.09;;;27.84;35.62
57574;BME280;68988;49.000;21.242;2023-06-04T11:28:39;98925.78;;;27.83;35.69
57574;BME280;68988;49.000;21.242;2023-06-04T11:31:10;98927.41;;;27.84;35.60
57574;BME280;68988;49.000;21.242;2023-06-04T11:33:44;98934.91;;;27.87;35.55
57574;BME280;68988;49.000;21.242;2023-06-04T11:36:21;98935.75;;;27.82;35.81
57574;BME280;68988;49.000;21.242;2023-06-04T11:38:59;98936.00;;;27.86;35.65
57574;BME280;68988;49.000;21.242;2023-06-04T11:41:35;98930.09;;;27.84;35.41
57574;BME280;68988;49.000;21.242;2023-06-04T11:44:03;98920.16;;;27.79;35.82
57574;BME280;68988;49.000;21.242;2023-06-04T11:46:32;98926.56;;;27.83;35.54
57574;BME280;68988;49.000;21.242;2023-06-04T11:48:58;98927.97;;;27.81;35.46
57574;BME280;68988;49.000;21.242;2023-06-04T11:51:24;98920.97;;;27.80;35.62
57574;BME280;68988;49.000;21.242;2023-06-04T11:53:49;98922.03;;;27.79;35.83
57574;BME280;68988;49.000;21.242;2023-06-04T11:56:16;98913.16;;;27.78;35.91
57574;BME280;68988;49.000;21.242;2023-06-04T11:58:42;98920.97;;;27.80;35.80
57574;BME280;68988;49.000;21.242;2023-06-04T12:01:08;98915.06;;;27.78;35.48
57574;BME280;68988;49.000;21.242;2023-06-04T12:03:43;98917.41;;;27.84;35.72
57574;BME280;68988;49.000;21.242;2023-06-04T12:13:55;98913.16;;;27.78;35.73
57574;BME280;68988;49.000;21.242;2023-06-04T12:16:22;98916.44;;;27.75;35.72
57574;BME280;68988;49.000;21.242;2023-06-04T12:18:47;98910.75;;;27.77;35.84
57574;BME280;68988;49.000;21.242;2023-06-04T12:21:24;98909.91;;;27.81;35.55
57574;BME280;68988;49.000;21.242;2023-06-04T12:26:31;98914.53;;;27.76;35.91
57574;BME280;68988;49.000;21.242;2023-06-04T12:29:09;98913.63;;;27.85;35.47
57574;BME280;68988;49.000;21.242;2023-06-04T12:31:42;98911.03;;;27.75;35.79
57574;BME280;68988;49.000;21.242;2023-06-04T12:34:10;98909.97;;;27.76;35.80
57574;BME280;68988;49.000;21.242;2023-06-04T12:36:36;98913.75;;;27.75;35.66
57574;BME280;68988;49.000;21.242;2023-06-04T12:39:04;98910.53;;;27.73;35.75
57574;BME280;68988;49.000;21.242;2023-06-04T12:41:31;98911.84;;;27.76;35.76
57574;BME280;68988;49.000;21.242;2023-06-04T12:43:57;98911.53;;;27.77;35.67
57574;BME280;68988;49.000;21.242;2023-06-04T12:46:23;98908.34;;;27.75;35.84
57574;BME280;68988;49.000;21.242;2023-06-04T12:48:50;98904.56;;;27.76;35.74
57574;BME280;68988;49.000;21.242;2023-06-04T12:51:16;98911.03;;;27.75;36.05
57574;BME280;68988;49.000;21.242;2023-06-04T12:53:41;98904.56;;;27.76;35.56
57574;BME280;68988;49.000;21.242;2023-06-04T12:56:07;98904.84;;;27.75;35.99
57574;BME280;68988;49.000;21.242;2023-06-04T12:58:33;98906.72;;;27.74;35.87
57574;BME280;68988;49.000;21.242;2023-06-04T13:00:58;98906.72;;;27.74;36.05